sensor_id;sensor_type;location;lat;lon;timestamp;P1;durP1;ratioP1;P2;durP2;ratioP2
74309;SDS011;62722;51.142;17.052;2023-02-15T00:02:03;25.70;;;10.70;;
74309;SDS011;62722;51.142;17.052;2023-02-15T00:04:30;30.42;;;11.05;;
74309;SDS011;62722;51.142;17.052;2023-02-15T00:07:26;27.25;;;9.98;;
74309;SDS011;62722;51.142;17.052;2023-02-15T00:09:54;28.45;;;11.25;;
74309;SDS011;62722;51.142;17.052;2023-02-15T00:12:21;29.98;;;11.07;;
74309;SDS011;62722;51.142;17.052;2023-02-15T00:14:48;31.48;;;11.50;;
74309;SDS011;62722;51.142;17.052;2023-02-15T00:17:18;32.00;;;10.80;;
74309;SDS011;62722;51.142;17.052;2023-02-15T00:19:45;27.52;;;11.07;;
74309;SDS011;62722;51.142;17.052;2023-02-15T00:22:12;27.35;;;11.25;;
74309;SDS011;62722;51.142;17.052;2023-02-15T00:24:41;29.15;;;11.65;;
74309;SDS011;62722;51.142;17.052;2023-02-15T00:27:09;29.90;;;11.02;;
74309;SDS011;62722;51.142;17.052;2023-02-15T00:29:36;33.03;;;11.77;;
74309;SDS011;62722;51.142;17.052;2023-02-15T00:32:04;31.38;;;11.50;;
74309;SDS011;62722;51.142;17.052;2023-02-15T00:34:32;28.42;;;10.57;;
74309;SDS011;62722;51.142;17.052;2023-02-15T00:36:59;28.80;;;11.63;;
74309;SDS011;62722;51.142;17.052;2023-02-15T00:39:26;28.35;;;11.52;;
74309;SDS011;62722;51.142;17.052;2023-02-15T00:41:55;29.70;;;10.85;;
74309;SDS011;62722;51.142;17.052;2023-02-15T00:44:23;28.15;;;10.23;;
74309;SDS011;62722;51.142;17.052;2023-02-15T00:46:50;27.48;;;11.77;;
74309;SDS011;62722;51.142;17.052;2023-02-15T00:49:18;24.73;;;10.70;;
74309;SDS011;62722;51.142;17.052;2023-02-15T00:51:45;27.20;;;10.77;;
74309;SDS011;62722;51.142;17.052;2023-02-15T00:54:12;26.17;;;10.60;;
74309;SDS011;62722;51.142;17.052;2023-02-15T00:56:40;28.50;;;11.07;;
74309;SDS011;62722;51.142;17.052;2023-02-15T00:59:09;25.27;;;10.13;;
74309;SDS011;62722;51.142;17.052;2023-02-15T01:01:36;31.77;;;11.73;;
74309;SDS011;62722;51.142;17.052;2023-02-15T01:04:04;31.50;;;13.05;;
74309;SDS011;62722;51.142;17.052;2023-02-15T01:06:32;32.75;;;13.52;;
74309;SDS011;62722;51.142;17.052;2023-02-15T01:08:59;31.48;;;13.05;;
74309;SDS011;62722;51.142;17.052;2023-02-15T01:11:27;35.60;;;13.20;;
74309;SDS011;62722;51.142;17.052;2023-02-15T01:13:56;35.40;;;13.77;;
74309;SDS011;62722;51.142;17.052;2023-02-15T01:16:26;33.88;;;14.32;;
74309;SDS011;62722;51.142;17.052;2023-02-15T01:18:55;34.88;;;13.27;;
74309;SDS011;62722;51.142;17.052;2023-02-15T01:21:24;36.85;;;14.48;;
74309;SDS011;62722;51.142;17.052;2023-02-15T01:23:53;39.80;;;14.25;;
74309;SDS011;62722;51.142;17.052;2023-02-15T01:26:20;33.30;;;13.82;;
74309;SDS011;62722;51.142;17.052;2023-02-15T01:28:48;38.83;;;14.82;;
74309;SDS011;62722;51.142;17.052;2023-02-15T01:31:15;36.50;;;13.82;;
74309;SDS011;62722;51.142;17.052;2023-02-15T01:33:48;43.30;;;15.23;;
74309;SDS011;62722;51.142;17.052;2023-02-15T01:36:15;31.77;;;12.82;;
74309;SDS011;62722;51.142;17.052;2023-02-15T01:38:43;37.22;;;14.57;;
74309;SDS011;62722;51.142;17.052;2023-02-15T01:41:11;40.63;;;15.38;;
74309;SDS011;62722;51.142;17.052;2023-02-15T01:43:49;37.95;;;13.23;;
74309;SDS011;62722;51.142;17.052;2023-02-15T01:46:18;40.58;;;14.85;;
74309;SDS011;62722;51.142;17.052;2023-02-15T01:48:48;37.33;;;15.60;;
74309;SDS011;62722;51.142;17.052;2023-02-15T01:53:49;37.60;;;13.75;;
74309;SDS011;62722;51.142;17.052;2023-02-15T01:56:21;39.45;;;15.55;;
74309;SDS011;62722;51.142;17.052;2023-02-15T01:58:52;39.03;;;15.70;;
74309;SDS011;62722;51.142;17.052;2023-02-15T02:01:23;39.53;;;14.65;;
74309;SDS011;62722;51.142;17.052;2023-02-15T02:03:56;39.03;;;16.27;;
74309;SDS011;62722;51.142;17.052;2023-02-15T02:06:26;41.10;;;16.10;;
74309;SDS011;62722;51.142;17.052;2023-02-15T02:08:54;47.75;;;17.52;;
74309;SDS011;62722;51.142;17.052;2023-02-15T02:11:22;50.50;;;18.42;;
74309;SDS011;62722;51.142;17.052;2023-02-15T02:13:49;48.97;;;20.58;;
74309;SDS011;62722;51.142;17.052;2023-02-15T02:16:20;54.03;;;22.33;;
74309;SDS011;62722;51.142;17.052;2023-02-15T02:19:01;53.38;;;23.13;;
74309;SDS011;62722;51.142;17.052;2023-02-15T02:22:04;52.35;;;20.58;;
74309;SDS011;62722;51.142;17.052;2023-02-15T02:24:54;46.60;;;19.73;;
74309;SDS011;62722;51.142;17.052;2023-02-15T02:27:39;44.00;;;17.55;;
74309;SDS011;62722;51.142;17.052;2023-02-15T02:30:20;44.13;;;17.58;;
74309;SDS011;62722;51.142;17.052;2023-02-15T02:33:09;42.92;;;15.82;;
74309;SDS011;62722;51.142;17.052;2023-02-15T02:36:02;47.35;;;18.20;;
74309;SDS011;62722;51.142;17.052;2023-02-15T02:38:42;43.35;;;17.17;;
74309;SDS011;62722;51.142;17.052;2023-02-15T02:41:20;49.60;;;17.88;;
74309;SDS011;62722;51.142;17.052;2023-02-15T02:43:54;50.45;;;18.33;;
74309;SDS011;62722;51.142;17.052;2023-02-15T02:46:32;40.53;;;16.67;;
74309;SDS011;62722;51.142;17.052;2023-02-15T02:49:05;51.35;;;19.30;;
74309;SDS011;62722;51.142;17.052;2023-02-15T02:51:32;49.50;;;17.92;;
74309;SDS011;62722;51.142;17.052;2023-02-15T02:54:00;50.80;;;19.23;;
74309;SDS011;62722;51.142;17.052;2023-02-15T02:59:01;56.72;;;21.35;;
74309;SDS011;62722;51.142;17.052;2023-02-15T03:01:31;51.10;;;19.60;;
74309;SDS011;62722;51.142;17.052;2023-02-15T03:04:02;53.58;;;19.27;;
74309;SDS011;62722;51.142;17.052;2023-02-15T03:06:36;47.13;;;19.88;;
74309;SDS011;62722;51.142;17.052;2023-02-15T03:09:08;46.05;;;18.95;;
74309;SDS011;62722;51.142;17.052;2023-02-15T03:11:47;48.90;;;18.20;;
74309;SDS011;62722;51.142;17.052;2023-02-15T03:14:15;42.45;;;18.55;;
74309;SDS011;62722;51.142;17.052;2023-02-15T03:16:46;39.97;;;17.13;;
74309;SDS011;62722;51.142;17.052;2023-02-15T03:19:17;43.58;;;16.83;;
74309;SDS011;62722;51.142;17.052;2023-02-15T03:21:48;43.45;;;17.45;;
74309;SDS011;62722;51.142;17.052;2023-02-15T03:24:23;40.83;;;18.05;;
74309;SDS011;62722;51.142;17.052;2023-02-15T03:26:55;45.72;;;17.90;;
74309;SDS011;62722;51.142;17.052;2023-02-15T03:29:24;42.65;;;17.17;;
74309;SDS011;62722;51.142;17.052;2023-02-15T03:31:54;55.42;;;24.33;;
74309;SDS011;62722;51.142;17.052;2023-02-15T03:34:27;51.42;;;24.45;;
74309;SDS011;62722;51.142;17.052;2023-02-15T03:36:56;52.42;;;23.70;;
74309;SDS011;62722;51.142;17.052;2023-02-15T03:39:29;51.65;;;20.77;;
74309;SDS011;62722;51.142;17.052;2023-02-15T03:42:04;49.15;;;19.88;;
74309;SDS011;62722;51.142;17.052;2023-02-15T03:44:41;47.05;;;18.58;;
74309;SDS011;62722;51.142;17.052;2023-02-15T03:47:16;49.67;;;18.42;;
74309;SDS011;62722;51.142;17.052;2023-02-15T03:49:48;46.15;;;17.65;;
74309;SDS011;62722;51.142;17.052;2023-02-15T03:52:20;41.67;;;17.38;;
74309;SDS011;62722;51.142;17.052;2023-02-15T03:54:48;44.10;;;16.80;;
74309;SDS011;62722;51.142;17.052;2023-02-15T03:57:18;49.53;;;18.17;;
74309;SDS011;62722;51.142;17.052;2023-02-15T04:00:05;39.67;;;16.15;;
74309;SDS011;62722;51.142;17.052;2023-02-15T04:02:58;37.42;;;16.38;;
74309;SDS011;62722;51.142;17.052;2023-02-15T04:05:37;42.65;;;18.70;;
74309;SDS011;62722;51.142;17.052;2023-02-15T04:08:04;50.58;;;23.13;;
74309;SDS011;62722;51.142;17.052;2023-02-15T04:10:32;44.50;;;19.00;;
74309;SDS011;62722;51.142;17.052;2023-02-15T04:13:17;41.97;;;19.50;;
74309;SDS011;62722;51.142;17.052;2023-02-15T04:15:44;44.38;;;20.05;;
74309;SDS011;62722;51.142;17.052;2023-02-15T04:18:29;44.05;;;17.50;;
74309;SDS011;62722;51.142;17.052;2023-02-15T04:24:00;36.78;;;14.32;;
74309;SDS011;62722;51.142;17.052;2023-02-15T04:26:44;36.55;;;14.20;;
74309;SDS011;62722;51.142;17.052;2023-02-15T04:29:13;36.25;;;14.52;;
74309;SDS011;62722;51.142;17.052;2023-02-15T04:31:41;38.25;;;15.15;;
74309;SDS011;62722;51.142;17.052;2023-02-15T04:34:10;35.90;;;15.35;;
74309;SDS011;62722;51.142;17.052;2023-02-15T04:36:38;39.47;;;14.60;;
74309;SDS011;62722;51.142;17.052;2023-02-15T04:39:06;35.50;;;14.07;;
74309;SDS011;62722;51.142;17.052;2023-02-15T04:41:34;34.65;;;13.60;;
74309;SDS011;62722;51.142;17.052;2023-02-15T04:44:02;34.47;;;13.85;;
74309;SDS011;62722;51.142;17.052;2023-02-15T04:46:30;36.85;;;14.43;;
74309;SDS011;62722;51.142;17.052;2023-02-15T04:48:57;38.28;;;14.05;;
74309;SDS011;62722;51.142;17.052;2023-02-15T04:51:25;36.17;;;14.98;;
74309;SDS011;62722;51.142;17.052;2023-02-15T04:53:53;39.90;;;15.02;;
74309;SDS011;62722;51.142;17.052;2023-02-15T04:56:22;35.20;;;15.35;;
74309;SDS011;62722;51.142;17.052;2023-02-15T04:58:49;38.47;;;14.88;;
74309;SDS011;62722;51.142;17.052;2023-02-15T05:01:16;38.33;;;15.70;;
74309;SDS011;62722;51.142;17.052;2023-02-15T05:03:44;38.58;;;15.70;;
74309;SDS011;62722;51.142;17.052;2023-02-15T05:06:12;35.53;;;13.30;;
74309;SDS011;62722;51.142;17.052;2023-02-15T05:08:39;35.38;;;13.75;;
74309;SDS011;62722;51.142;17.052;2023-02-15T05:11:08;35.78;;;13.57;;
74309;SDS011;62722;51.142;17.052;2023-02-15T05:13:35;31.95;;;12.48;;
74309;SDS011;62722;51.142;17.052;2023-02-15T05:16:03;32.90;;;14.68;;
74309;SDS011;62722;51.142;17.052;2023-02-15T05:18:30;34.13;;;14.23;;
74309;SDS011;62722;51.142;17.052;2023-02-15T05:20:57;32.97;;;12.52;;
74309;SDS011;62722;51.142;17.052;2023-02-15T05:23:25;34.08;;;14.43;;
74309;SDS011;62722;51.142;17.052;2023-02-15T05:25:52;33.13;;;12.82;;
74309;SDS011;62722;51.142;17.052;2023-02-15T05:28:39;36.85;;;13.07;;
74309;SDS011;62722;51.142;17.052;2023-02-15T05:31:06;37.00;;;13.45;;
74309;SDS011;62722;51.142;17.052;2023-02-15T05:33:36;34.55;;;13.18;;
74309;SDS011;62722;51.142;17.052;2023-02-15T05:36:04;36.92;;;13.07;;
74309;SDS011;62722;51.142;17.052;2023-02-15T05:38:33;37.55;;;11.82;;
74309;SDS011;62722;51.142;17.052;2023-02-15T05:41:02;41.13;;;14.35;;
74309;SDS011;62722;51.142;17.052;2023-02-15T05:43:30;35.35;;;14.85;;
74309;SDS011;62722;51.142;17.052;2023-02-15T05:45:59;36.55;;;14.25;;
74309;SDS011;62722;51.142;17.052;2023-02-15T05:48:27;36.10;;;13.88;;
74309;SDS011;62722;51.142;17.052;2023-02-15T05:50:58;36.38;;;13.30;;
74309;SDS011;62722;51.142;17.052;2023-02-15T05:53:26;33.83;;;13.30;;
74309;SDS011;62722;51.142;17.052;2023-02-15T05:55:54;32.40;;;13.70;;
74309;SDS011;62722;51.142;17.052;2023-02-15T05:58:24;37.53;;;13.77;;
74309;SDS011;62722;51.142;17.052;2023-02-15T06:00:52;39.42;;;13.90;;
74309;SDS011;62722;51.142;17.052;2023-02-15T06:03:21;35.40;;;13.57;;
74309;SDS011;62722;51.142;17.052;2023-02-15T06:05:51;38.83;;;13.30;;
74309;SDS011;62722;51.142;17.052;2023-02-15T06:08:19;36.63;;;15.07;;
74309;SDS011;62722;51.142;17.052;2023-02-15T06:10:46;37.75;;;14.98;;
74309;SDS011;62722;51.142;17.052;2023-02-15T06:13:13;34.55;;;13.65;;
74309;SDS011;62722;51.142;17.052;2023-02-15T06:15:41;38.90;;;13.93;;
74309;SDS011;62722;51.142;17.052;2023-02-15T06:18:08;40.92;;;12.73;;
74309;SDS011;62722;51.142;17.052;2023-02-15T06:20:37;35.75;;;13.60;;
74309;SDS011;62722;51.142;17.052;2023-02-15T06:23:04;36.65;;;14.98;;
74309;SDS011;62722;51.142;17.052;2023-02-15T06:25:31;33.08;;;13.57;;
74309;SDS011;62722;51.142;17.052;2023-02-15T06:27:59;37.05;;;15.23;;
74309;SDS011;62722;51.142;17.052;2023-02-15T06:30:26;38.30;;;13.63;;
74309;SDS011;62722;51.142;17.052;2023-02-15T06:32:53;38.42;;;14.75;;
74309;SDS011;62722;51.142;17.052;2023-02-15T06:35:21;41.70;;;15.15;;
74309;SDS011;62722;51.142;17.052;2023-02-15T06:37:50;33.75;;;13.32;;
74309;SDS011;62722;51.142;17.052;2023-02-15T06:40:17;38.95;;;13.55;;
74309;SDS011;62722;51.142;17.052;2023-02-15T06:42:45;37.83;;;14.13;;
74309;SDS011;62722;51.142;17.052;2023-02-15T06:45:12;41.47;;;13.85;;
74309;SDS011;62722;51.142;17.052;2023-02-15T06:47:39;35.40;;;13.73;;
74309;SDS011;62722;51.142;17.052;2023-02-15T06:50:07;39.53;;;14.98;;
74309;SDS011;62722;51.142;17.052;2023-02-15T06:52:36;38.45;;;13.55;;
74309;SDS011;62722;51.142;17.052;2023-02-15T06:55:05;43.00;;;16.15;;
74309;SDS011;62722;51.142;17.052;2023-02-15T06:57:33;38.10;;;15.52;;
74309;SDS011;62722;51.142;17.052;2023-02-15T07:00:00;42.83;;;15.23;;
74309;SDS011;62722;51.142;17.052;2023-02-15T07:02:30;38.85;;;16.15;;
74309;SDS011;62722;51.142;17.052;2023-02-15T07:04:57;46.47;;;15.68;;
74309;SDS011;62722;51.142;17.052;2023-02-15T07:07:25;40.97;;;16.60;;
74309;SDS011;62722;51.142;17.052;2023-02-15T07:09:52;38.53;;;15.10;;
74309;SDS011;62722;51.142;17.052;2023-02-15T07:12:21;37.90;;;15.02;;
74309;SDS011;62722;51.142;17.052;2023-02-15T07:15:06;32.30;;;13.50;;
74309;SDS011;62722;51.142;17.052;2023-02-15T07:17:34;38.83;;;14.98;;
74309;SDS011;62722;51.142;17.052;2023-02-15T07:20:03;41.13;;;14.77;;
74309;SDS011;62722;51.142;17.052;2023-02-15T07:22:33;34.28;;;13.68;;
74309;SDS011;62722;51.142;17.052;2023-02-15T07:25:01;39.30;;;14.40;;
74309;SDS011;62722;51.142;17.052;2023-02-15T07:27:31;36.85;;;14.10;;
74309;SDS011;62722;51.142;17.052;2023-02-15T07:29:59;37.78;;;14.05;;
74309;SDS011;62722;51.142;17.052;2023-02-15T07:32:27;34.10;;;12.85;;
74309;SDS011;62722;51.142;17.052;2023-02-15T07:34:55;34.22;;;13.68;;
74309;SDS011;62722;51.142;17.052;2023-02-15T07:37:23;39.95;;;14.27;;
74309;SDS011;62722;51.142;17.052;2023-02-15T07:39:51;34.70;;;13.75;;
74309;SDS011;62722;51.142;17.052;2023-02-15T07:42:18;37.38;;;13.52;;
74309;SDS011;62722;51.142;17.052;2023-02-15T07:44:48;34.40;;;13.10;;
74309;SDS011;62722;51.142;17.052;2023-02-15T07:47:16;32.78;;;13.00;;
74309;SDS011;62722;51.142;17.052;2023-02-15T07:49:44;36.83;;;14.10;;
74309;SDS011;62722;51.142;17.052;2023-02-15T07:52:14;43.03;;;15.65;;
74309;SDS011;62722;51.142;17.052;2023-02-15T07:54:42;44.10;;;16.52;;
74309;SDS011;62722;51.142;17.052;2023-02-15T07:57:09;36.42;;;14.43;;
74309;SDS011;62722;51.142;17.052;2023-02-15T07:59:36;32.25;;;13.68;;
74309;SDS011;62722;51.142;17.052;2023-02-15T08:02:07;40.75;;;15.00;;
74309;SDS011;62722;51.142;17.052;2023-02-15T08:04:36;35.63;;;13.85;;
74309;SDS011;62722;51.142;17.052;2023-02-15T08:07:04;35.45;;;13.73;;
74309;SDS011;62722;51.142;17.052;2023-02-15T08:09:32;38.00;;;14.85;;
74309;SDS011;62722;51.142;17.052;2023-02-15T08:11:59;38.97;;;15.05;;
74309;SDS011;62722;51.142;17.052;2023-02-15T08:14:28;37.65;;;14.68;;
74309;SDS011;62722;51.142;17.052;2023-02-15T08:16:55;37.70;;;14.55;;
74309;SDS011;62722;51.142;17.052;2023-02-15T08:19:30;40.58;;;15.25;;
74309;SDS011;62722;51.142;17.052;2023-02-15T08:21:58;37.67;;;14.55;;
74309;SDS011;62722;51.142;17.052;2023-02-15T08:24:28;35.97;;;14.88;;
74309;SDS011;62722;51.142;17.052;2023-02-15T08:26:57;37.45;;;14.73;;
74309;SDS011;62722;51.142;17.052;2023-02-15T08:29:25;31.95;;;12.48;;
74309;SDS011;62722;51.142;17.052;2023-02-15T08:31:58;34.78;;;12.82;;
74309;SDS011;62722;51.142;17.052;2023-02-15T08:34:30;35.35;;;13.15;;
74309;SDS011;62722;51.142;17.052;2023-02-15T08:36:59;34.63;;;13.23;;
74309;SDS011;62722;51.142;17.052;2023-02-15T08:39:27;34.67;;;12.70;;
74309;SDS011;62722;51.142;17.052;2023-02-15T08:41:55;30.38;;;11.98;;
74309;SDS011;62722;51.142;17.052;2023-02-15T08:44:22;32.70;;;12.43;;
74309;SDS011;62722;51.142;17.052;2023-02-15T08:46:50;24.50;;;10.65;;
74309;SDS011;62722;51.142;17.052;2023-02-15T08:49:18;28.98;;;11.32;;
74309;SDS011;62722;51.142;17.052;2023-02-15T08:51:48;30.15;;;11.48;;
74309;SDS011;62722;51.142;17.052;2023-02-15T08:54:18;29.95;;;12.55;;
74309;SDS011;62722;51.142;17.052;2023-02-15T08:56:46;29.63;;;11.50;;
74309;SDS011;62722;51.142;17.052;2023-02-15T08:59:15;30.42;;;10.65;;
74309;SDS011;62722;51.142;17.052;2023-02-15T09:01:44;29.63;;;10.02;;
74309;SDS011;62722;51.142;17.052;2023-02-15T09:04:12;27.83;;;11.32;;
74309;SDS011;62722;51.142;17.052;2023-02-15T09:06:41;30.67;;;11.95;;
74309;SDS011;62722;51.142;17.052;2023-02-15T09:09:12;27.13;;;11.50;;
74309;SDS011;62722;51.142;17.052;2023-02-15T09:11:39;28.17;;;11.35;;
74309;SDS011;62722;51.142;17.052;2023-02-15T09:14:09;28.40;;;12.45;;
74309;SDS011;62722;51.142;17.052;2023-02-15T09:16:39;30.95;;;11.52;;
74309;SDS011;62722;51.142;17.052;2023-02-15T09:19:08;33.25;;;13.18;;
74309;SDS011;62722;51.142;17.052;2023-02-15T09:21:36;30.38;;;11.88;;
74309;SDS011;62722;51.142;17.052;2023-02-15T09:24:05;30.25;;;11.90;;
74309;SDS011;62722;51.142;17.052;2023-02-15T09:26:36;30.42;;;11.35;;
74309;SDS011;62722;51.142;17.052;2023-02-15T09:29:06;32.40;;;11.15;;
74309;SDS011;62722;51.142;17.052;2023-02-15T09:31:37;27.58;;;11.15;;
74309;SDS011;62722;51.142;17.052;2023-02-15T09:34:07;25.50;;;11.30;;
74309;SDS011;62722;51.142;17.052;2023-02-15T09:36:34;28.52;;;11.35;;
74309;SDS011;62722;51.142;17.052;2023-02-15T09:39:04;27.88;;;11.57;;
74309;SDS011;62722;51.142;17.052;2023-02-15T09:41:53;31.42;;;11.50;;
74309;SDS011;62722;51.142;17.052;2023-02-15T09:47:50;34.55;;;13.13;;
74309;SDS011;62722;51.142;17.052;2023-02-15T09:50:35;29.65;;;11.88;;
74309;SDS011;62722;51.142;17.052;2023-02-15T09:53:17;28.35;;;11.52;;
74309;SDS011;62722;51.142;17.052;2023-02-15T09:56:00;28.85;;;10.70;;
74309;SDS011;62722;51.142;17.052;2023-02-15T09:58:38;27.67;;;11.85;;
74309;SDS011;62722;51.142;17.052;2023-02-15T10:01:15;29.10;;;11.75;;
74309;SDS011;62722;51.142;17.052;2023-02-15T10:03:52;29.85;;;11.40;;
74309;SDS011;62722;51.142;17.052;2023-02-15T10:06:28;27.65;;;12.00;;
74309;SDS011;62722;51.142;17.052;2023-02-15T10:12:08;29.50;;;11.38;;
74309;SDS011;62722;51.142;17.052;2023-02-15T10:14:54;21.73;;;8.55;;
74309;SDS011;62722;51.142;17.052;2023-02-15T10:17:42;28.52;;;11.10;;
74309;SDS011;62722;51.142;17.052;2023-02-15T10:20:22;25.27;;;10.75;;
74309;SDS011;62722;51.142;17.052;2023-02-15T10:23:03;22.58;;;9.93;;
74309;SDS011;62722;51.142;17.052;2023-02-15T10:25:41;29.38;;;11.40;;
74309;SDS011;62722;51.142;17.052;2023-02-15T10:28:15;25.70;;;11.05;;
74309;SDS011;62722;51.142;17.052;2023-02-15T10:30:48;27.52;;;11.40;;
74309;SDS011;62722;51.142;17.052;2023-02-15T10:33:23;28.95;;;11.55;;
74309;SDS011;62722;51.142;17.052;2023-02-15T10:36:05;25.92;;;10.23;;
74309;SDS011;62722;51.142;17.052;2023-02-15T10:38:45;33.97;;;12.90;;
74309;SDS011;62722;51.142;17.052;2023-02-15T10:41:20;30.58;;;12.07;;
74309;SDS011;62722;51.142;17.052;2023-02-15T10:44:01;27.65;;;11.85;;
74309;SDS011;62722;51.142;17.052;2023-02-15T10:49:43;30.55;;;12.25;;
74309;SDS011;62722;51.142;17.052;2023-02-15T10:52:25;29.08;;;11.35;;
74309;SDS011;62722;51.142;17.052;2023-02-15T10:55:06;27.33;;;11.32;;
74309;SDS011;62722;51.142;17.052;2023-02-15T10:57:40;27.98;;;11.15;;
74309;SDS011;62722;51.142;17.052;2023-02-15T11:00:16;24.80;;;10.32;;
74309;SDS011;62722;51.142;17.052;2023-02-15T11:02:54;29.83;;;11.13;;
74309;SDS011;62722;51.142;17.052;2023-02-15T11:05:40;26.33;;;11.00;;
74309;SDS011;62722;51.142;17.052;2023-02-15T11:08:14;26.85;;;10.95;;
74309;SDS011;62722;51.142;17.052;2023-02-15T11:10:43;27.42;;;10.60;;
74309;SDS011;62722;51.142;17.052;2023-02-15T11:13:16;32.38;;;12.07;;
74309;SDS011;62722;51.142;17.052;2023-02-15T11:15:47;31.13;;;12.00;;
74309;SDS011;62722;51.142;17.052;2023-02-15T11:18:21;29.27;;;10.65;;
74309;SDS011;62722;51.142;17.052;2023-02-15T11:20:54;21.77;;;8.90;;
74309;SDS011;62722;51.142;17.052;2023-02-15T11:23:24;22.92;;;8.45;;
74309;SDS011;62722;51.142;17.052;2023-02-15T11:25:57;30.20;;;10.65;;
74309;SDS011;62722;51.142;17.052;2023-02-15T11:28:27;25.05;;;10.32;;
74309;SDS011;62722;51.142;17.052;2023-02-15T11:31:00;25.17;;;10.90;;
74309;SDS011;62722;51.142;17.052;2023-02-15T11:33:40;27.23;;;11.63;;
74309;SDS011;62722;51.142;17.052;2023-02-15T11:36:12;25.40;;;10.73;;
74309;SDS011;62722;51.142;17.052;2023-02-15T11:38:43;25.67;;;11.88;;
74309;SDS011;62722;51.142;17.052;2023-02-15T11:41:13;28.00;;;11.55;;
74309;SDS011;62722;51.142;17.052;2023-02-15T11:43:46;30.17;;;12.80;;
74309;SDS011;62722;51.142;17.052;2023-02-15T11:46:20;26.40;;;10.98;;
74309;SDS011;62722;51.142;17.052;2023-02-15T11:48:49;29.77;;;11.48;;
74309;SDS011;62722;51.142;17.052;2023-02-15T11:51:18;29.73;;;12.63;;
74309;SDS011;62722;51.142;17.052;2023-02-15T11:53:48;26.52;;;12.15;;
74309;SDS011;62722;51.142;17.052;2023-02-15T11:56:18;26.17;;;11.02;;
74309;SDS011;62722;51.142;17.052;2023-02-15T11:58:48;28.45;;;12.65;;
74309;SDS011;62722;51.142;17.052;2023-02-15T12:01:23;28.45;;;10.88;;
74309;SDS011;62722;51.142;17.052;2023-02-15T12:03:58;33.83;;;12.35;;
74309;SDS011;62722;51.142;17.052;2023-02-15T12:06:30;32.10;;;11.20;;
74309;SDS011;62722;51.142;17.052;2023-02-15T12:09:02;29.10;;;12.85;;
74309;SDS011;62722;51.142;17.052;2023-02-15T12:11:35;28.55;;;11.48;;
74309;SDS011;62722;51.142;17.052;2023-02-15T12:14:04;25.67;;;11.02;;
74309;SDS011;62722;51.142;17.052;2023-02-15T12:16:34;27.95;;;11.18;;
74309;SDS011;62722;51.142;17.052;2023-02-15T12:19:17;25.08;;;11.13;;
74309;SDS011;62722;51.142;17.052;2023-02-15T12:22:05;26.58;;;10.32;;
74309;SDS011;62722;51.142;17.052;2023-02-15T12:27:14;26.92;;;11.02;;
74309;SDS011;62722;51.142;17.052;2023-02-15T12:29:44;27.40;;;11.45;;
74309;SDS011;62722;51.142;17.052;2023-02-15T12:32:18;25.42;;;11.80;;
74309;SDS011;62722;51.142;17.052;2023-02-15T12:34:51;30.17;;;12.38;;
74309;SDS011;62722;51.142;17.052;2023-02-15T12:37:21;32.25;;;12.38;;
74309;SDS011;62722;51.142;17.052;2023-02-15T12:39:53;29.02;;;12.07;;
74309;SDS011;62722;51.142;17.052;2023-02-15T12:42:22;29.85;;;12.88;;
74309;SDS011;62722;51.142;17.052;2023-02-15T12:44:54;32.22;;;13.32;;
74309;SDS011;62722;51.142;17.052;2023-02-15T12:47:24;30.08;;;12.73;;
74309;SDS011;62722;51.142;17.052;2023-02-15T12:50:05;28.25;;;11.90;;
74309;SDS011;62722;51.142;17.052;2023-02-15T12:52:42;27.27;;;11.93;;
74309;SDS011;62722;51.142;17.052;2023-02-15T12:55:11;29.20;;;11.65;;
74309;SDS011;62722;51.142;17.052;2023-02-15T12:57:48;31.50;;;12.23;;
74309;SDS011;62722;51.142;17.052;2023-02-15T13:00:25;30.33;;;11.43;;
74309;SDS011;62722;51.142;17.052;2023-02-15T13:02:57;29.00;;;11.20;;
74309;SDS011;62722;51.142;17.052;2023-02-15T13:05:29;28.98;;;12.23;;
74309;SDS011;62722;51.142;17.052;2023-02-15T13:08:00;30.48;;;12.77;;
74309;SDS011;62722;51.142;17.052;2023-02-15T13:10:31;28.85;;;12.02;;
74309;SDS011;62722;51.142;17.052;2023-02-15T13:13:02;30.85;;;12.52;;
74309;SDS011;62722;51.142;17.052;2023-02-15T13:15:37;29.88;;;11.88;;
74309;SDS011;62722;51.142;17.052;2023-02-15T13:18:10;28.90;;;12.00;;
74309;SDS011;62722;51.142;17.052;2023-02-15T13:20:43;32.92;;;12.63;;
74309;SDS011;62722;51.142;17.052;2023-02-15T13:23:16;30.42;;;11.93;;
74309;SDS011;62722;51.142;17.052;2023-02-15T13:25:52;29.63;;;12.15;;
74309;SDS011;62722;51.142;17.052;2023-02-15T13:28:23;29.88;;;11.82;;
74309;SDS011;62722;51.142;17.052;2023-02-15T13:30:54;33.60;;;13.63;;
74309;SDS011;62722;51.142;17.052;2023-02-15T13:33:23;33.10;;;13.43;;
74309;SDS011;62722;51.142;17.052;2023-02-15T13:35:57;32.97;;;12.13;;
74309;SDS011;62722;51.142;17.052;2023-02-15T13:38:46;30.67;;;12.35;;
74309;SDS011;62722;51.142;17.052;2023-02-15T13:41:20;27.35;;;11.48;;
74309;SDS011;62722;51.142;17.052;2023-02-15T13:43:54;30.73;;;13.18;;
74309;SDS011;62722;51.142;17.052;2023-02-15T13:46:33;25.85;;;11.10;;
74309;SDS011;62722;51.142;17.052;2023-02-15T13:49:14;28.13;;;12.20;;
74309;SDS011;62722;51.142;17.052;2023-02-15T13:51:51;24.40;;;10.85;;
74309;SDS011;62722;51.142;17.052;2023-02-15T13:54:29;30.98;;;12.23;;
74309;SDS011;62722;51.142;17.052;2023-02-15T13:57:16;29.35;;;13.00;;
74309;SDS011;62722;51.142;17.052;2023-02-15T13:59:55;30.73;;;11.77;;
74309;SDS011;62722;51.142;17.052;2023-02-15T14:02:58;39.47;;;14.60;;
74309;SDS011;62722;51.142;17.052;2023-02-15T14:05:48;34.25;;;14.63;;
74309;SDS011;62722;51.142;17.052;2023-02-15T14:08:31;27.90;;;10.68;;
74309;SDS011;62722;51.142;17.052;2023-02-15T14:11:06;25.60;;;10.82;;
74309;SDS011;62722;51.142;17.052;2023-02-15T14:13:57;26.20;;;11.02;;
74309;SDS011;62722;51.142;17.052;2023-02-15T14:16:45;28.88;;;10.85;;
74309;SDS011;62722;51.142;17.052;2023-02-15T14:19:21;25.08;;;10.60;;
74309;SDS011;62722;51.142;17.052;2023-02-15T14:21:59;27.48;;;10.45;;
74309;SDS011;62722;51.142;17.052;2023-02-15T14:24:33;24.55;;;10.88;;
74309;SDS011;62722;51.142;17.052;2023-02-15T14:27:11;25.98;;;10.98;;
74309;SDS011;62722;51.142;17.052;2023-02-15T14:29:51;24.15;;;9.98;;
74309;SDS011;62722;51.142;17.052;2023-02-15T14:32:24;28.38;;;11.18;;
74309;SDS011;62722;51.142;17.052;2023-02-15T14:34:55;26.70;;;10.63;;
74309;SDS011;62722;51.142;17.052;2023-02-15T14:37:29;28.58;;;11.07;;
74309;SDS011;62722;51.142;17.052;2023-02-15T14:40:08;29.25;;;11.55;;
74309;SDS011;62722;51.142;17.052;2023-02-15T14:43:04;25.58;;;11.02;;
74309;SDS011;62722;51.142;17.052;2023-02-15T14:45:39;28.27;;;11.45;;
74309;SDS011;62722;51.142;17.052;2023-02-15T14:48:10;26.67;;;10.98;;
74309;SDS011;62722;51.142;17.052;2023-02-15T14:50:43;28.38;;;11.82;;
74309;SDS011;62722;51.142;17.052;2023-02-15T14:53:16;26.55;;;11.52;;
74309;SDS011;62722;51.142;17.052;2023-02-15T14:56:06;36.08;;;14.13;;
74309;SDS011;62722;51.142;17.052;2023-02-15T14:58:59;26.90;;;12.23;;